createdAt,value
2024-03-08T00:01:17.594Z,96178.41
2024-03-08T00:04:02.865Z,96185.09
2024-03-08T00:06:49.036Z,96177.59
2024-03-08T00:09:34.429Z,96176.47
2024-03-08T00:12:19.990Z,96172.19
2024-03-08T00:15:05.906Z,96176.84
2024-03-08T00:17:51.611Z,96175.22
2024-03-08T00:20:37.207Z,96179.13
2024-03-08T00:23:22.693Z,96170.72
2024-03-08T00:26:08.240Z,96165.50
2024-03-08T00:28:54.729Z,96175.09
2024-03-08T00:31:39.926Z,96174.50
2024-03-08T00:34:26.075Z,96165.88
2024-03-08T00:37:11.425Z,96168.19
2024-03-08T00:39:56.613Z,96161.69
2024-03-08T00:42:42.601Z,96159.06
2024-03-08T00:45:27.800Z,96163.38
2024-03-08T00:48:13.520Z,96152.56
2024-03-08T00:50:58.792Z,96157.66
2024-03-08T00:53:44.543Z,96158.09
2024-03-08T00:56:29.955Z,96160.34
2024-03-08T00:59:15.756Z,96149.50
2024-03-08T01:02:01.779Z,96152.47
2024-03-08T01:04:48.632Z,96145.78
2024-03-08T01:07:34.206Z,96144.56
2024-03-08T01:10:19.267Z,96154.38
2024-03-08T01:13:05.003Z,96147.84
2024-03-08T01:15:50.042Z,96144.88
2024-03-08T01:18:36.417Z,96144.16
2024-03-08T01:21:21.850Z,96137.63
2024-03-08T01:24:07.407Z,96135.63
2024-03-08T01:26:52.917Z,96130.22
2024-03-08T01:29:38.796Z,96130.72
2024-03-08T01:32:24.890Z,96132.50
2024-03-08T01:35:10.861Z,96132.41
2024-03-08T01:37:56.513Z,96135.19
2024-03-08T01:40:42.386Z,96133.38
2024-03-08T01:43:32.053Z,96131.06
2024-03-08T01:46:23.425Z,96127.25
2024-03-08T01:49:09.290Z,96129.38
2024-03-08T01:51:57.690Z,96128.00
2024-03-08T01:54:43.335Z,96140.78
2024-03-08T01:57:30.197Z,96130.75
2024-03-08T02:00:16.115Z,96130.91
2024-03-08T02:03:02.877Z,96125.22
2024-03-08T02:05:48.635Z,96132.94
2024-03-08T02:08:35.179Z,96119.63
2024-03-08T02:11:22.082Z,96122.56
2024-03-08T02:14:07.979Z,96124.31
2024-03-08T02:16:53.632Z,96121.66
2024-03-08T02:19:38.922Z,96118.38
2024-03-08T02:22:24.404Z,96116.41
2024-03-08T02:25:10.956Z,96107.31
2024-03-08T02:27:56.050Z,96111.53
2024-03-08T02:30:41.941Z,96117.44
2024-03-08T02:33:30.170Z,96115.00
2024-03-08T02:36:15.813Z,96114.31
2024-03-08T02:39:02.288Z,96117.84
2024-03-08T02:41:47.883Z,96112.81
2024-03-08T02:44:34.718Z,96116.63
2024-03-08T02:47:20.087Z,96107.34
2024-03-08T02:50:05.962Z,96116.38
2024-03-08T02:52:51.942Z,96119.53
2024-03-08T02:55:37.157Z,96114.47
2024-03-08T02:58:22.960Z,96120.03
2024-03-08T03:01:08.220Z,96118.69
2024-03-08T03:03:53.622Z,96119.16
2024-03-08T03:06:38.917Z,96119.59
2024-03-08T03:09:28.553Z,96121.75
2024-03-08T03:12:13.783Z,96121.88
2024-03-08T03:14:59.428Z,96116.38
2024-03-08T03:17:52.377Z,96111.69
2024-03-08T03:20:44.580Z,96109.09
2024-03-08T03:23:34.462Z,96113.94
2024-03-08T03:26:20.028Z,96116.94
2024-03-08T03:29:07.001Z,96118.03
2024-03-08T03:31:52.270Z,96114.78
2024-03-08T03:34:37.546Z,96112.97
2024-03-08T03:37:22.939Z,96113.59
2024-03-08T03:40:09.671Z,96113.44
2024-03-08T03:42:55.060Z,96116.44
2024-03-08T03:45:42.902Z,96118.81
2024-03-08T03:48:28.321Z,96111.28
2024-03-08T03:51:15.757Z,96107.09
2024-03-08T03:54:01.152Z,96114.94
2024-03-08T03:56:47.888Z,96120.91
2024-03-08T03:59:32.932Z,96119.28
2024-03-08T04:02:18.887Z,96109.94
2024-03-08T04:05:05.989Z,96113.06
2024-03-08T04:07:51.405Z,96113.00
2024-03-08T04:10:36.740Z,96105.22
2024-03-08T04:13:22.015Z,96102.47
2024-03-08T04:16:09.275Z,96106.56
2024-03-08T04:18:55.152Z,96101.75
2024-03-08T04:21:40.959Z,96105.84
2024-03-08T04:24:26.537Z,96108.69
2024-03-08T04:27:11.992Z,96095.69
2024-03-08T04:29:58.334Z,96101.97
2024-03-08T04:32:44.100Z,96112.41
2024-03-08T04:35:29.382Z,96112.63
2024-03-08T04:38:14.897Z,96102.16
2024-03-08T04:41:00.594Z,96111.19
2024-03-08T04:43:45.877Z,96113.19
2024-03-08T04:46:31.353Z,96115.91
2024-03-08T04:49:16.762Z,96116.38
2024-03-08T04:52:05.596Z,96114.56
2024-03-08T04:54:50.856Z,96116.97
2024-03-08T04:57:36.299Z,96120.22
2024-03-08T05:00:22.121Z,96121.69
2024-03-08T05:03:07.471Z,96120.16
2024-03-08T05:05:53.016Z,96126.97
2024-03-08T05:08:38.375Z,96129.78
2024-03-08T05:11:23.798Z,96128.97
2024-03-08T05:14:09.632Z,96120.88
2024-03-08T05:16:54.945Z,96129.97
2024-03-08T05:19:40.428Z,96117.91
2024-03-08T05:22:27.150Z,96120.66
2024-03-08T05:25:13.398Z,96128.31
2024-03-08T05:27:59.189Z,96118.06
2024-03-08T05:30:44.644Z,96122.69
2024-03-08T05:33:30.427Z,96121.66
2024-03-08T05:36:17.674Z,96122.28
2024-03-08T05:39:03.706Z,96129.13
2024-03-08T05:41:49.289Z,96130.47
2024-03-08T05:44:35.283Z,96135.47
2024-03-08T05:47:20.370Z,96130.75
2024-03-08T05:50:06.270Z,96129.94
2024-03-08T05:52:51.712Z,96130.09
2024-03-08T05:55:37.196Z,96128.38
2024-03-08T05:58:22.672Z,96128.81
2024-03-08T06:01:09.137Z,96137.78
2024-03-08T06:03:56.943Z,96137.22
2024-03-08T06:06:42.580Z,96140.31
2024-03-08T06:09:28.286Z,96125.94
2024-03-08T06:12:13.594Z,96130.84
2024-03-08T06:14:59.069Z,96142.13
2024-03-08T06:17:44.709Z,96132.13
2024-03-08T06:20:30.357Z,96128.53
2024-03-08T06:23:19.007Z,96139.38
2024-03-08T06:26:04.664Z,96140.34
2024-03-08T06:28:50.166Z,96136.69
2024-03-08T06:31:35.575Z,96141.28
2024-03-08T06:34:20.956Z,96137.16
2024-03-08T06:37:06.476Z,96139.97
2024-03-08T06:39:56.284Z,96132.28
2024-03-08T06:42:42.319Z,96135.94
2024-03-08T06:45:27.516Z,96139.38
2024-03-08T06:48:13.822Z,96150.03
2024-03-08T06:50:59.402Z,96145.16
2024-03-08T06:53:45.559Z,96146.81
2024-03-08T06:56:31.214Z,96145.53
2024-03-08T06:59:19.185Z,96146.22
2024-03-08T07:02:05.241Z,96149.28
2024-03-08T07:04:51.607Z,96143.69
2024-03-08T07:07:38.307Z,96146.22
2024-03-08T07:10:26.649Z,96149.19
2024-03-08T07:13:12.280Z,96143.00
2024-03-08T07:15:57.691Z,96137.84
2024-03-08T07:18:44.898Z,96145.31
2024-03-08T07:21:30.310Z,96141.19
2024-03-08T07:24:18.747Z,96136.06
2024-03-08T07:27:07.485Z,96145.09
2024-03-08T07:30:08.138Z,96138.38
2024-03-08T07:32:54.873Z,96141.53
2024-03-08T07:35:41.470Z,96141.66
2024-03-08T07:38:26.702Z,96146.53
2024-03-08T07:41:13.092Z,96143.84
2024-03-08T07:44:01.784Z,96144.91
2024-03-08T07:46:47.145Z,96139.44
2024-03-08T07:49:32.757Z,96142.06
2024-03-08T07:52:19.132Z,96145.78
2024-03-08T07:55:07.326Z,96141.75
2024-03-08T07:57:52.667Z,96141.28
2024-03-08T08:00:38.132Z,96144.69
2024-03-08T08:03:23.620Z,96143.00
2024-03-08T08:06:09.049Z,96135.13
2024-03-08T08:08:54.705Z,96139.34
2024-03-08T08:11:40.027Z,96137.25
2024-03-08T08:14:25.596Z,96136.50
2024-03-08T08:17:11.123Z,96139.47
2024-03-08T08:19:57.212Z,96135.59
2024-03-08T08:22:44.654Z,96129.72
2024-03-08T08:25:30.412Z,96131.94
2024-03-08T08:28:15.655Z,96139.94
2024-03-08T08:31:01.115Z,96138.88
2024-03-08T08:33:48.872Z,96134.91
2024-03-08T08:36:35.610Z,96142.91
2024-03-08T08:39:23.931Z,96138.16
2024-03-08T08:42:12.422Z,96141.94
2024-03-08T08:45:03.056Z,96136.22
2024-03-08T08:47:54.038Z,96137.22
2024-03-08T08:50:40.566Z,96130.03
2024-03-08T08:53:25.820Z,96130.41
2024-03-08T08:56:14.009Z,96133.22
2024-03-08T08:58:59.878Z,96127.72
2024-03-08T09:01:48.310Z,96131.25
2024-03-08T09:04:33.962Z,96128.06
2024-03-08T09:07:20.227Z,96125.13
2024-03-08T09:12:54.254Z,96124.19
2024-03-08T09:15:41.468Z,96120.28
2024-03-08T09:18:27.467Z,96121.25
2024-03-08T09:21:14.379Z,96121.59
2024-03-08T09:23:59.820Z,96124.56
2024-03-08T09:26:44.903Z,96117.72
2024-03-08T09:29:30.160Z,96124.56
2024-03-08T09:32:15.798Z,96125.59
2024-03-08T09:35:02.371Z,96121.19
2024-03-08T09:37:52.922Z,96116.94
2024-03-08T09:40:38.692Z,96119.59
2024-03-08T09:43:25.524Z,96119.09
2024-03-08T09:46:12.295Z,96114.97
2024-03-08T09:48:58.592Z,96115.47
2024-03-08T09:51:44.357Z,96108.47
2024-03-08T09:54:30.723Z,96113.03
2024-03-08T09:57:17.229Z,96105.88
2024-03-08T10:00:09.644Z,96105.19
2024-03-08T10:02:55.225Z,96102.28
2024-03-08T10:05:40.602Z,96102.91
2024-03-08T10:08:25.879Z,96110.66
2024-03-08T10:11:12.939Z,96106.75
2024-03-08T10:13:58.769Z,96106.75
2024-03-08T10:16:44.060Z,96110.00
2024-03-08T10:19:33.147Z,96119.84
2024-03-08T10:22:18.949Z,96118.53
2024-03-08T10:25:06.355Z,96125.59
2024-03-08T10:27:52.021Z,96122.09
2024-03-08T10:30:38.845Z,96128.66
2024-03-08T10:33:23.781Z,96119.84
2024-03-08T10:36:13.021Z,96112.63
2024-03-08T10:39:00.276Z,96113.94
2024-03-08T10:41:50.377Z,96112.31
2024-03-08T10:44:44.708Z,96102.84
2024-03-08T10:47:32.305Z,96106.78
2024-03-08T10:50:26.381Z,96101.84
2024-03-08T10:53:12.709Z,96106.91
2024-03-08T10:55:58.855Z,96104.81
2024-03-08T10:58:45.708Z,96103.84
2024-03-08T11:01:31.909Z,96093.31
2024-03-08T11:04:20.870Z,96086.28
2024-03-08T11:07:07.561Z,96087.94
2024-03-08T11:09:52.892Z,96086.47
2024-03-08T11:12:38.837Z,96094.50
2024-03-08T11:15:25.859Z,96089.06
2024-03-08T11:18:11.678Z,96088.56
2024-03-08T11:20:58.764Z,96088.72
2024-03-08T11:23:44.653Z,96085.44
2024-03-08T11:26:32.383Z,96075.97
2024-03-08T11:29:30.376Z,96079.88
2024-03-08T11:32:19.530Z,96076.28
2024-03-08T11:35:10.144Z,96070.88
2024-03-08T11:37:56.021Z,96068.75
2024-03-08T11:40:41.557Z,96066.63
2024-03-08T11:43:26.784Z,96067.75
2024-03-08T11:46:16.274Z,96071.66
2024-03-08T11:49:01.880Z,96065.56
2024-03-08T11:51:47.379Z,96062.63
2024-03-08T11:54:33.022Z,96060.97
2024-03-08T11:57:23.642Z,96047.03
2024-03-08T12:00:22.805Z,96051.09
2024-03-08T12:03:08.675Z,96045.31
2024-03-08T12:06:00.981Z,96048.72
2024-03-08T12:08:50.388Z,96041.31
2024-03-08T12:11:37.261Z,96037.69
2024-03-08T12:14:23.601Z,96041.56
2024-03-08T12:17:12.749Z,96030.69
2024-03-08T12:20:13.740Z,96038.75
2024-03-08T12:23:00.533Z,96027.25
2024-03-08T12:25:46.416Z,96027.53
2024-03-08T12:28:31.989Z,96035.38
2024-03-08T12:31:18.488Z,96032.28
2024-03-08T12:34:04.719Z,96025.09
2024-03-08T12:36:53.164Z,96029.03
2024-03-08T12:39:38.902Z,96019.97
2024-03-08T12:42:24.288Z,96027.34
2024-03-08T12:45:11.212Z,96013.97
2024-03-08T12:47:57.081Z,96015.88
2024-03-08T12:50:46.509Z,96014.38
2024-03-08T12:53:31.833Z,96010.41
2024-03-08T12:56:29.765Z,96006.09
2024-03-08T12:59:15.131Z,96002.09
2024-03-08T13:02:01.258Z,96010.75
2024-03-08T13:04:46.710Z,96002.09
2024-03-08T13:07:32.871Z,96008.28
2024-03-08T13:10:18.342Z,96003.31
2024-03-08T13:13:04.292Z,95999.16
2024-03-08T13:15:50.220Z,96000.28
2024-03-08T13:18:36.954Z,95993.19
2024-03-08T13:21:25.226Z,95988.75
2024-03-08T13:24:11.146Z,95984.78
2024-03-08T13:26:56.586Z,95986.59
2024-03-08T13:29:42.493Z,95985.75
2024-03-08T13:32:28.298Z,95979.28
2024-03-08T13:35:16.974Z,95976.63
2024-03-08T13:38:06.743Z,95978.22
2024-03-08T13:40:53.162Z,95988.50
2024-03-08T13:43:39.268Z,95978.44
2024-03-08T13:46:25.594Z,95980.53
2024-03-08T13:49:12.244Z,95974.81
2024-03-08T13:51:59.970Z,95974.47
2024-03-08T13:54:45.018Z,95973.16
2024-03-08T13:57:30.416Z,95978.72
2024-03-08T14:00:16.231Z,95970.53
2024-03-08T14:03:01.933Z,95974.47
2024-03-08T14:05:48.128Z,95973.38
2024-03-08T14:08:34.453Z,95975.00
2024-03-08T14:11:20.502Z,95974.00
2024-03-08T14:14:06.151Z,95968.69
2024-03-08T14:16:56.514Z,95977.00
2024-03-08T14:19:41.925Z,95971.38
2024-03-08T14:22:27.478Z,95972.09
2024-03-08T14:25:19.069Z,95972.75
2024-03-08T14:28:08.513Z,95960.50
2024-03-08T14:30:54.878Z,95963.06
2024-03-08T14:33:40.202Z,95949.06
2024-03-08T14:36:29.441Z,95953.25
2024-03-08T14:39:15.344Z,95949.19
2024-03-08T14:42:01.211Z,95953.19
2024-03-08T14:44:49.407Z,95952.88
2024-03-08T14:47:35.636Z,95945.63
2024-03-08T14:50:23.867Z,95946.22
2024-03-08T14:53:09.194Z,95947.81
2024-03-08T14:55:54.458Z,95953.72
2024-03-08T14:58:39.939Z,95946.72
2024-03-08T15:01:29.903Z,95949.09
2024-03-08T15:04:16.652Z,95946.16
2024-03-08T15:07:03.285Z,95950.78
2024-03-08T15:09:48.287Z,95943.06
2024-03-08T15:12:33.488Z,95945.63
2024-03-08T15:15:19.332Z,95952.94
2024-03-08T15:18:05.173Z,95946.34
2024-03-08T15:20:50.560Z,95951.59
2024-03-08T15:23:38.619Z,95947.16
2024-03-08T15:26:23.800Z,95951.59
2024-03-08T15:29:09.211Z,95950.31
2024-03-08T15:31:55.389Z,95952.34
2024-03-08T15:34:43.632Z,95942.16
2024-03-08T15:37:30.770Z,95950.50
2024-03-08T15:40:24.990Z,95952.31
2024-03-08T15:43:10.624Z,95943.78
2024-03-08T15:45:56.209Z,95955.22
2024-03-08T15:48:43.295Z,95947.41
2024-03-08T15:51:28.616Z,95958.53
2024-03-08T15:54:14.007Z,95958.38
2024-03-08T15:56:59.552Z,95957.94
2024-03-08T15:59:45.519Z,95959.44
2024-03-08T16:02:30.904Z,95955.63
2024-03-08T16:05:17.569Z,95965.16
2024-03-08T16:08:03.076Z,95962.72
2024-03-08T16:10:51.202Z,95963.66
2024-03-08T16:13:39.474Z,95963.75
2024-03-08T16:16:24.935Z,95965.38
2024-03-08T16:19:09.902Z,95969.00
2024-03-08T16:21:55.310Z,95967.00
2024-03-08T16:24:43.958Z,95967.72
2024-03-08T16:27:29.421Z,95966.19
2024-03-08T16:30:17.784Z,95966.38
2024-03-08T16:33:03.454Z,95969.81
2024-03-08T16:35:50.689Z,95967.34
2024-03-08T16:38:38.108Z,95966.28
2024-03-08T16:41:23.573Z,95970.53
2024-03-08T16:44:10.375Z,95966.88
2024-03-08T16:47:01.009Z,95966.09
2024-03-08T16:49:46.498Z,95962.38
2024-03-08T16:52:32.983Z,95961.91
2024-03-08T16:55:21.860Z,95962.91
2024-03-08T16:58:09.568Z,95964.94
2024-03-08T17:00:55.111Z,95957.69
2024-03-08T17:03:47.982Z,95960.78
2024-03-08T17:06:41.820Z,95963.59
2024-03-08T17:09:28.510Z,95959.34
2024-03-08T17:12:19.705Z,95962.63
2024-03-08T17:15:06.917Z,95957.38
2024-03-08T17:17:55.185Z,95955.72
2024-03-08T17:20:42.159Z,95959.34
2024-03-08T17:23:27.998Z,95957.50
2024-03-08T17:26:13.830Z,95969.50
2024-03-08T17:28:59.566Z,95951.94
2024-03-08T17:31:45.982Z,95951.75
2024-03-08T17:34:33.279Z,95956.19
2024-03-08T17:37:20.389Z,95955.72
2024-03-08T17:40:09.904Z,95953.09
2024-03-08T17:42:58.153Z,95948.66
2024-03-08T17:45:46.893Z,95946.03
2024-03-08T17:48:33.532Z,95955.72
2024-03-08T17:51:18.672Z,95939.94
2024-03-08T17:54:03.891Z,95938.97
2024-03-08T17:56:49.246Z,95940.59
2024-03-08T17:59:35.202Z,95939.56
2024-03-08T18:02:21.038Z,95944.22
2024-03-08T18:05:08.456Z,95941.59
2024-03-08T18:08:03.586Z,95935.88
2024-03-08T18:10:52.162Z,95940.50
2024-03-08T18:13:37.947Z,95945.34
2024-03-08T18:16:23.423Z,95942.78
2024-03-08T18:19:08.847Z,95946.19
2024-03-08T18:21:54.015Z,95940.81
2024-03-08T18:24:39.462Z,95948.09
2024-03-08T18:27:29.097Z,95932.53
2024-03-08T18:30:17.954Z,95933.72
2024-03-08T18:33:03.989Z,95939.44
2024-03-08T18:35:49.389Z,95928.56
2024-03-08T18:38:34.703Z,95932.88
2024-03-08T18:41:20.202Z,95931.19
2024-03-08T18:44:05.552Z,95932.81
2024-03-08T18:46:57.679Z,95926.91
2024-03-08T18:49:43.482Z,95932.34
2024-03-08T18:52:31.055Z,95933.00
2024-03-08T18:55:24.957Z,95929.53
2024-03-08T18:58:10.877Z,95931.69
2024-03-08T19:00:56.001Z,95930.53
2024-03-08T19:03:42.643Z,95923.44
2024-03-08T19:06:32.090Z,95926.25
2024-03-08T19:09:18.111Z,95926.63
2024-03-08T19:12:10.119Z,95931.69
2024-03-08T19:14:55.677Z,95932.34
2024-03-08T19:17:40.893Z,95927.72
2024-03-08T19:20:30.120Z,95929.00
2024-03-08T19:23:15.543Z,95930.66
2024-03-08T19:26:00.895Z,95922.94
2024-03-08T19:28:47.880Z,95929.00
2024-03-08T19:31:33.412Z,95925.75
2024-03-08T19:34:20.015Z,95925.75
2024-03-08T19:37:07.498Z,95918.06
2024-03-08T19:39:53.326Z,95924.09
2024-03-08T19:42:38.652Z,95924.47
2024-03-08T19:45:27.368Z,95909.88
2024-03-08T19:48:22.200Z,95918.75
2024-03-08T19:51:07.927Z,95921.19
2024-03-08T19:53:55.423Z,95920.22
2024-03-08T19:56:40.438Z,95918.16
2024-03-08T19:59:25.738Z,95917.00
2024-03-08T20:02:10.887Z,95914.81
2024-03-08T20:04:57.251Z,95922.38
2024-03-08T20:07:45.626Z,95913.84
2024-03-08T20:10:31.618Z,95920.91
2024-03-08T20:13:18.386Z,95919.75
2024-03-08T20:16:05.042Z,95913.56
2024-03-08T20:18:52.689Z,95913.38
2024-03-08T20:21:39.448Z,95916.66
2024-03-08T20:24:24.968Z,95916.00
2024-03-08T20:27:10.237Z,95915.19
2024-03-08T20:29:55.433Z,95913.19
2024-03-08T20:32:43.981Z,95910.56
2024-03-08T20:35:32.831Z,95908.13
2024-03-08T20:38:21.878Z,95908.13
2024-03-08T20:41:12.741Z,95903.88
2024-03-08T20:43:58.585Z,95901.88
2024-03-08T20:46:43.821Z,95903.59
2024-03-08T20:49:29.149Z,95904.41
2024-03-08T20:52:14.280Z,95903.66
2024-03-08T20:54:59.821Z,95911.56
2024-03-08T20:57:50.970Z,95906.13
2024-03-08T21:00:42.456Z,95903.50
2024-03-08T21:03:29.786Z,95906.13
2024-03-08T21:06:19.164Z,95901.59
2024-03-08T21:09:07.617Z,95905.03
2024-03-08T21:11:54.671Z,95907.16
2024-03-08T21:14:39.803Z,95903.88
2024-03-08T21:17:26.181Z,95898.63
2024-03-08T21:20:12.527Z,95893.56
2024-03-08T21:23:00.863Z,95895.34
2024-03-08T21:25:47.129Z,95893.72
2024-03-08T21:28:32.984Z,95895.31
2024-03-08T21:31:18.449Z,95887.91
2024-03-08T21:34:05.827Z,95892.31
2024-03-08T21:36:51.175Z,95885.72
2024-03-08T21:39:36.556Z,95883.63
2024-03-08T21:42:21.989Z,95880.41
2024-03-08T21:45:07.940Z,95879.56
2024-03-08T21:47:54.674Z,95878.47
2024-03-08T21:50:40.060Z,95876.97
2024-03-08T21:53:31.116Z,95882.34
2024-03-08T21:56:20.697Z,95878.72
2024-03-08T21:59:06.605Z,95878.63
2024-03-08T22:01:54.096Z,95885.59
2024-03-08T22:04:39.982Z,95880.69
2024-03-08T22:07:25.623Z,95874.47
2024-03-08T22:10:11.102Z,95875.72
2024-03-08T22:12:57.264Z,95879.19
2024-03-08T22:15:46.175Z,95883.56
2024-03-08T22:18:33.634Z,95871.72
2024-03-08T22:21:18.870Z,95876.97
2024-03-08T22:24:04.497Z,95873.81
2024-03-08T22:26:49.731Z,95883.97
2024-03-08T22:29:35.046Z,95887.47
2024-03-08T22:32:20.569Z,95879.13
2024-03-08T22:35:06.545Z,95874.53
2024-03-08T22:37:55.799Z,95878.81
2024-03-08T22:40:41.546Z,95875.25
2024-03-08T22:43:27.547Z,95874.34
2024-03-08T22:46:12.837Z,95870.59
2024-03-08T22:48:58.566Z,95870.38
2024-03-08T22:51:43.921Z,95863.75
2024-03-08T22:54:29.202Z,95868.31
2024-03-08T22:57:19.530Z,95864.69
2024-03-08T23:00:24.455Z,95868.50
2024-03-08T23:03:11.273Z,95869.16
2024-03-08T23:05:59.142Z,95865.41
2024-03-08T23:08:46.589Z,95869.75
2024-03-08T23:11:31.903Z,95862.72
2024-03-08T23:14:17.263Z,95869.09
2024-03-08T23:17:02.842Z,95864.25
2024-03-08T23:19:48.188Z,95864.00
2024-03-08T23:22:33.228Z,95861.69
2024-03-08T23:25:20.447Z,95861.91
2024-03-08T23:28:08.354Z,95861.09
2024-03-08T23:30:53.670Z,95857.84
2024-03-08T23:33:39.172Z,95862.59
2024-03-08T23:36:24.698Z,95865.69
2024-03-08T23:39:13.122Z,95860.66
2024-03-08T23:41:58.779Z,95860.16
2024-03-08T23:44:44.171Z,95862.28
2024-03-08T23:47:29.722Z,95859.78
2024-03-08T23:50:17.024Z,95859.13
2024-03-08T23:53:03.694Z,95855.44
2024-03-08T23:55:50.536Z,95855.44
2024-03-08T23:58:35.848Z,95858.69
